Cape Naturaliste, Australia
Current Conditions -  °F | °C
As of 3:00 PM on Saturday 29 Nov 2014 (Local Time) from YPJT Reporting Station
Clear Clear  
Wind Chill: 73°   Ceiling: Unl
Heat Index: 73°   Visibility: 6mi
Dew Point: 55°   Wind: 17mph
Humidity: 53%   Direction: 230°SW
Pressure: 29.88"   Gusts: NA
Location:  33.53°S, 115°E
Report Text: YPJT 290700Z AUTO 23015KT 9999 // NCD 23/13 Q1012
Loading
Personal Weather Stations






























Interactive Weather Map New forecast layout! Learn more

10-Day Weather Forecast

Advertisements
Track Severe Weather on mobile